TimeCST,TemperatureF,Dew PointF,Humidity,Sea Level PressureIn,VisibilityMPH,Wind Direction,Wind SpeedMPH,Gust SpeedMPH,PrecipitationIn,Events,Conditions,WindDirDegrees,DateUTC
12:54 AM,1.0,-8.0,66,29.65,-9999.0,South,4.6,-,N/A,,Overcast,180,2014-01-26 06:54:00
1:54 AM,1.0,-6.0,72,29.62,-9999.0,South,8.1,-,0.00,Snow,Light Snow,180,2014-01-26 07:54:00
2:14 AM,1.0,-5.1,75,29.52,-9999.0,South,6.9,-,0.00,Snow,Snow,170,2014-01-26 08:14:00
2:54 AM,1.0,-4.0,79,29.60,-9999.0,ESE,4.6,-,0.00,Snow,Snow,110,2014-01-26 08:54:00
3:12 AM,1.0,-4.0,79,29.49,-9999.0,ESE,5.8,-,0.00,Snow,Snow,120,2014-01-26 09:12:00
3:27 AM,1.0,-4.0,79,29.47,-9999.0,ESE,6.9,-,0.00,Snow,Light Snow,120,2014-01-26 09:27:00
3:54 AM,1.0,-4.0,79,29.55,-9999.0,East,6.9,-,0.00,Snow,Light Snow,100,2014-01-26 09:54:00
4:41 AM,1.0,-4.0,79,29.41,-9999.0,ESE,10.4,-,0.00,Snow,Light Snow,120,2014-01-26 10:41:00
4:54 AM,1.0,-4.0,79,29.52,-9999.0,ESE,6.9,-,0.00,Snow,Light Snow,110,2014-01-26 10:54:00
5:18 AM,1.0,-4.0,79,29.40,-9999.0,ESE,10.4,-,0.00,Snow,Light Snow,110,2014-01-26 11:18:00
5:54 AM,1.0,-4.0,79,29.50,-9999.0,East,5.8,-,0.00,Snow,Light Snow,100,2014-01-26 11:54:00
6:06 AM,1.0,-4.0,79,29.39,-9999.0,East,6.9,-,0.00,Snow,Light Snow,100,2014-01-26 12:06:00
6:46 AM,1.9,-4.0,76,29.37,-9999.0,ESE,9.2,-,0.00,Snow,Light Snow,120,2014-01-26 12:46:00
6:54 AM,1.9,-2.9,80,29.47,-9999.0,SE,9.2,-,0.00,Snow,Light Snow,130,2014-01-26 12:54:00
7:54 AM,1.9,-2.9,80,29.43,-9999.0,SE,8.1,-,0.00,Snow,Light Snow,140,2014-01-26 13:54:00
8:54 AM,1.9,-2.0,83,29.44,-9999.0,South,6.9,-,0.00,Snow,Light Snow,180,2014-01-26 14:54:00
9:54 AM,3.0,-2.0,80,29.39,-9999.0,South,9.2,-,0.01,Snow,Light Snow,170,2014-01-26 15:54:00
10:34 AM,5.0,-0.9,76,29.29,-9999.0,SSW,9.2,-,0.00,,Overcast,210,2014-01-26 16:34:00
10:54 AM,5.0,-0.0,80,29.39,-9999.0,SW,6.9,-,0.00,,Overcast,230,2014-01-26 16:54:00
11:37 AM,6.1,1.9,83,29.30,-9999.0,West,11.5,-,0.00,Snow,Light Snow,260,2014-01-26 17:37:00
11:54 AM,7.0,3.0,84,29.38,-9999.0,West,10.4,-,0.00,Snow,Light Snow,260,2014-01-26 17:54:00
12:07 PM,8.1,1.9,76,29.28,-9999.0,West,12.7,-,0.00,Snow,Light Snow,260,2014-01-26 18:07:00
12:49 PM,10.4,3.2,73,29.28,-9999.0,West,16.1,24.2,0.00,,Overcast,280,2014-01-26 18:49:00
12:54 PM,10.0,3.0,73,29.37,-9999.0,West,18.4,26.5,0.00,,Overcast,280,2014-01-26 18:54:00
1:54 PM,12.0,5.0,73,29.36,-9999.0,WNW,13.8,27.6,0.00,Snow,Light Snow,290,2014-01-26 19:54:00
2:54 PM,12.0,3.9,70,29.42,-9999.0,WNW,21.9,29.9,0.00,Snow,Light Snow,290,2014-01-26 20:54:00
3:33 PM,10.9,3.9,73,29.34,-9999.0,NW,20.7,27.6,0.00,Snow,Light Snow,310,2014-01-26 21:33:00
3:54 PM,10.9,3.0,70,29.43,-9999.0,NW,12.7,21.9,0.00,,Overcast,310,2014-01-26 21:54:00
4:36 PM,10.9,5.0,77,29.36,-9999.0,WNW,9.2,-,0.00,Snow,Light Snow,290,2014-01-26 22:36:00
4:54 PM,10.0,5.0,80,29.46,-9999.0,WNW,8.1,-,0.00,,Overcast,290,2014-01-26 22:54:00
5:25 PM,10.9,5.0,77,29.40,-9999.0,WNW,20.7,27.6,0.00,Snow,Light Snow,300,2014-01-26 23:25:00
5:54 PM,9.0,3.0,77,29.51,-9999.0,NW,27.6,33.4,0.00,Snow,Light Snow,310,2014-01-26 23:54:00
6:36 PM,8.1,1.9,76,29.46,-9999.0,WNW,18.4,32.2,0.00,Snow,Light Snow,300,2014-01-27 00:36:00
6:54 PM,7.0,1.0,77,29.58,-9999.0,NW,27.6,33.4,0.00,Snow,Light Snow,310,2014-01-27 00:54:00
7:38 PM,5.0,-0.9,76,29.53,-9999.0,NW,20.7,-,0.00,Snow,Light Snow,310,2014-01-27 01:38:00
7:46 PM,5.0,-0.0,80,29.54,-9999.0,NW,25.3,34.5,0.00,Snow,Light Snow,310,2014-01-27 01:46:00
7:54 PM,3.9,-2.0,76,29.65,-9999.0,NW,27.6,34.5,0.00,Snow,Light Snow,320,2014-01-27 01:54:00
8:11 PM,3.9,-2.9,73,29.56,-9999.0,NW,25.3,34.5,0.00,,Overcast,310,2014-01-27 02:11:00
8:54 PM,3.0,-2.9,76,29.70,-9999.0,NW,24.2,34.5,0.00,Snow,Light Snow,310,2014-01-27 02:54:00
9:01 PM,3.0,-2.9,76,29.61,-9999.0,NW,23.0,-,0.00,Snow,Light Snow,310,2014-01-27 03:01:00
9:18 PM,1.9,-4.0,76,29.63,-9999.0,NW,26.5,36.8,0.00,Snow,Light Snow,320,2014-01-27 03:18:00
9:54 PM,1.0,-7.1,69,29.77,-9999.0,NW,26.5,38.0,0.00,,Mostly Cloudy,320,2014-01-27 03:54:00
10:54 PM,-0.9,-9.0,69,29.83,-9999.0,NW,25.3,32.2,0.00,,Partly Cloudy,320,2014-01-27 04:54:00
11:44 PM,-2.0,-9.9,69,29.77,-9999.0,NW,20.7,32.2,0.00,,Mostly Cloudy,310,2014-01-27 05:44:00
11:54 PM,-2.0,-11.0,66,29.88,-9999.0,NW,23.0,28.8,0.00,,Mostly Cloudy,320,2014-01-27 05:54:00